Time;durP1;ratioP1;P1;durP2;ratioP2;P2;SDS_P1;SDS_P2;PMS_P1;PMS_P2;Temp;Humidity;BMP_temperature;BMP_pressure;BME280_temperature;BME280_humidity;BME280_pressure;Samples;Min_cycle;Max_cycle;Signal;HPM_P1;HPM_P2
2021/08/22 00:00:32;;;;;;;0.10;0.10;;;;;;;17.58;74.39;99164.53;4998827;28;20099;-77
2021/08/22 00:02:58;;;;;;;0.10;0.10;;;;;;;17.65;73.58;99170.03;5015018;28;20037;-75
2021/08/22 00:05:24;;;;;;;0.10;0.10;;;;;;;17.63;74.24;99172.13;5020129;28;20371;-75
2021/08/22 00:07:50;;;;;;;0.10;0.10;;;;;;;17.47;75.61;99170.63;5000778;28;20073;-76
2021/08/22 00:10:16;;;;;;;0.10;0.10;;;;;;;17.38;75.92;99166.41;5007803;28;20052;-74
2021/08/22 00:12:42;;;;;;;0.10;0.10;;;;;;;17.19;77.52;99170.78;5000738;28;20052;-75
2021/08/22 00:15:09;;;;;;;0.10;0.10;;;;;;;17.07;77.97;99167.78;5005167;28;20041;-76
2021/08/22 00:17:35;;;;;;;0.10;0.10;;;;;;;16.94;78.69;99166.94;5009417;28;20168;-75
2021/08/22 00:20:01;;;;;;;0.10;0.10;;;;;;;16.88;79.40;99168.56;5006714;28;20038;-74
2021/08/22 00:22:29;;;;;;;0.10;0.10;;;;;;;16.80;79.67;99171.47;5022291;28;20112;-74
2021/08/22 00:24:54;;;;;;;0.17;0.17;;;;;;;16.74;80.03;99166.81;5009180;28;20491;-75
2021/08/22 00:27:20;;;;;;;0.20;0.20;;;;;;;16.68;79.97;99173.09;5005068;28;20598;-74
2021/08/22 00:29:46;;;;;;;0.20;0.20;;;;;;;16.49;81.14;99164.59;5008255;28;20054;-74
2021/08/22 00:32:11;;;;;;;0.20;0.20;;;;;;;16.40;81.25;99169.34;5015680;28;20037;-74
2021/08/22 00:34:37;;;;;;;0.20;0.20;;;;;;;16.46;80.95;99175.06;5017186;28;20041;-75
2021/08/22 00:37:03;;;;;;;0.10;0.10;;;;;;;16.48;80.43;99173.78;4991453;28;20045;-76
2021/08/22 00:39:29;;;;;;;0.20;0.20;;;;;;;16.49;80.47;99175.50;5009749;28;20141;-74
2021/08/22 00:41:55;;;;;;;0.10;0.10;;;;;;;16.45;80.48;99176.91;5021940;28;20187;-74
2021/08/22 00:44:24;;;;;;;0.20;0.20;;;;;;;16.47;80.52;99176.75;5025693;28;20049;-75
2021/08/22 00:46:55;;;;;;;0.20;0.20;;;;;;;16.43;80.44;99165.38;5020759;28;20037;-74
2021/08/22 00:49:22;;;;;;;0.17;0.15;;;;;;;16.41;80.48;99178.38;5008708;28;20104;-77
2021/08/22 00:51:48;;;;;;;0.10;0.10;;;;;;;16.41;80.20;99178.38;5010878;28;20400;-75
2021/08/22 00:54:13;;;;;;;0.10;0.10;;;;;;;16.30;80.65;99177.03;5011207;28;20052;-75
2021/08/22 00:56:40;;;;;;;0.10;0.10;;;;;;;16.27;80.69;99182.06;5006130;28;20042;-74
2021/08/22 00:59:16;;;;;;;0.17;0.17;;;;;;;16.24;80.92;99182.47;4975592;28;20080;-74
2021/08/22 01:01:45;;;;;;;0.10;0.10;;;;;;;16.17;81.06;99179.69;5001100;28;20542;-74
2021/08/22 01:04:50;;;;;;;0.10;0.10;;;;;;;16.08;81.51;99178.16;5001566;28;20133;-75
2021/08/22 01:07:23;;;;;;;0.10;0.10;;;;;;;16.01;81.57;99179.97;5015361;28;20065;-75
2021/08/22 01:09:52;;;;;;;0.20;0.20;;;;;;;15.98;81.64;99183.09;5013697;28;20103;-74
2021/08/22 01:12:33;;;;;;;0.13;0.13;;;;;;;15.90;81.62;99187.69;5005822;28;20057;-74
2021/08/22 01:15:04;;;;;;;0.20;0.20;;;;;;;15.83;81.78;99177.72;5000285;28;20060;-74
2021/08/22 01:17:31;;;;;;;0.10;0.10;;;;;;;15.80;81.79;99187.16;4993923;28;20050;-75
2021/08/22 01:20:04;;;;;;;0.20;0.20;;;;;;;15.80;81.53;99186.31;5014158;28;20164;-75
2021/08/22 01:22:31;;;;;;;0.20;0.20;;;;;;;15.82;81.20;99184.22;5008204;28;20092;-75
2021/08/22 01:24:57;;;;;;;0.20;0.20;;;;;;;15.69;81.60;99184.13;4995671;28;20077;-75
2021/08/22 01:27:24;;;;;;;0.20;0.20;;;;;;;15.63;81.74;99186.56;5028019;28;20065;-73
2021/08/22 01:30:08;;;;;;;0.20;0.20;;;;;;;15.67;81.59;99181.59;4991748;28;20073;-75
2021/08/22 01:32:41;;;;;;;0.10;0.10;;;;;;;15.67;81.68;99181.59;5026497;28;20200;-75
2021/08/22 01:35:09;;;;;;;0.20;0.20;;;;;;;15.62;81.46;99181.31;4997244;28;20042;-76
2021/08/22 01:37:35;;;;;;;0.10;0.10;;;;;;;15.60;81.62;99186.09;4993279;28;20056;-75
2021/08/22 01:40:03;;;;;;;0.20;0.20;;;;;;;15.59;81.48;99185.25;5022971;28;20041;-75
2021/08/22 01:42:30;;;;;;;0.20;0.20;;;;;;;15.59;81.21;99187.16;4981604;28;20034;-75
2021/08/22 01:44:57;;;;;;;0.17;0.17;;;;;;;15.52;81.70;99178.06;4991171;28;20164;-74
2021/08/22 01:47:23;;;;;;;0.10;0.10;;;;;;;15.42;81.99;99183.81;5008637;28;20034;-74
2021/08/22 01:49:49;;;;;;;0.20;0.20;;;;;;;15.44;81.67;99187.22;5017414;28;20056;-74
2021/08/22 01:52:16;;;;;;;0.20;0.20;;;;;;;15.42;81.85;99181.09;5025016;28;20068;-76
2021/08/22 01:54:43;;;;;;;0.20;0.20;;;;;;;15.39;81.77;99182.34;5011132;28;20120;-74
2021/08/22 01:57:09;;;;;;;0.20;0.20;;;;;;;15.36;81.88;99179.16;5033068;28;20053;-75
2021/08/22 01:59:36;;;;;;;0.20;0.20;;;;;;;15.36;82.25;99180.00;4996883;28;20042;-74
2021/08/22 02:02:03;;;;;;;0.20;0.20;;;;;;;15.37;81.85;99180.84;5022688;28;20046;-76
2021/08/22 02:05:02;;;;;;;0.20;0.20;;;;;;;15.37;81.52;99183.56;5024159;28;20076;-74
2021/08/22 02:07:33;;;;;;;0.20;0.20;;;;;;;15.34;81.79;99182.06;4960047;28;20411;-73
2021/08/22 02:10:17;;;;;;;0.20;0.20;;;;;;;15.33;82.13;99185.00;5023517;28;20041;-75
2021/08/22 02:12:44;;;;;;;0.20;0.20;;;;;;;15.32;82.16;99177.84;5004997;28;20044;-74
2021/08/22 02:15:13;;;;;;;0.20;0.20;;;;;;;15.31;82.13;99181.63;5010387;28;20093;-74
2021/08/22 02:18:01;;;;;;;0.20;0.20;;;;;;;15.29;82.20;99186.44;4987860;28;20052;-75
2021/08/22 02:20:27;;;;;;;0.20;0.20;;;;;;;15.27;82.23;99180.31;4989417;28;20048;-74
2021/08/22 02:22:54;;;;;;;0.10;0.10;;;;;;;15.27;82.29;99174.88;4993409;28;20046;-75
2021/08/22 02:25:20;;;;;;;0.17;0.17;;;;;;;15.20;82.45;99180.25;4992080;28;20050;-76
2021/08/22 02:27:46;;;;;;;0.17;0.17;;;;;;;15.19;82.22;99189.44;4990022;28;20495;-76
2021/08/22 02:30:13;;;;;;;0.20;0.20;;;;;;;15.16;82.45;99185.22;4990880;28;20137;-77
2021/08/22 02:32:39;;;;;;;0.20;0.20;;;;;;;15.20;82.24;99186.53;4970778;28;20038;-74
2021/08/22 02:35:06;;;;;;;0.20;0.20;;;;;;;15.15;82.37;99189.00;5011041;28;20038;-74
2021/08/22 02:37:33;;;;;;;0.20;0.20;;;;;;;15.13;82.24;99184.75;5019502;28;20037;-74
2021/08/22 02:39:59;;;;;;;0.20;0.20;;;;;;;15.13;82.20;99185.59;5010890;28;20056;-74
2021/08/22 02:42:25;;;;;;;0.20;0.20;;;;;;;15.06;82.69;99195.56;4976194;28;20038;-76
2021/08/22 02:44:50;;;;;;;0.20;0.20;;;;;;;14.92;84.45;99193.75;4997537;28;20063;-74
2021/08/22 02:47:16;;;;;;;0.20;0.20;;;;;;;14.88;83.95;99195.13;4999943;28;20096;-74
2021/08/22 02:49:42;;;;;;;0.20;0.20;;;;;;;14.90;83.59;99190.34;4992532;28;20057;-75
2021/08/22 02:52:09;;;;;;;0.20;0.20;;;;;;;14.81;83.48;99186.03;5015999;28;20566;-76
2021/08/22 02:54:34;;;;;;;0.20;0.20;;;;;;;14.79;83.76;99188.13;4998555;28;20061;-74
2021/08/22 02:57:00;;;;;;;0.20;0.20;;;;;;;14.84;83.94;99191.13;5022821;28;20030;-74
2021/08/22 02:59:26;;;;;;;0.20;0.20;;;;;;;14.90;83.41;99201.25;4975311;28;20054;-73
2021/08/22 03:01:52;;;;;;;0.20;0.20;;;;;;;14.89;83.62;99207.75;5016178;28;20038;-76
2021/08/22 03:04:18;;;;;;;0.20;0.20;;;;;;;14.91;83.18;99202.94;5006795;28;20053;-75
2021/08/22 03:06:43;;;;;;;0.20;0.20;;;;;;;14.92;83.31;99196.47;5001928;28;20141;-74
2021/08/22 03:09:10;;;;;;;0.20;0.20;;;;;;;15.06;82.75;99209.19;5003393;28;20125;-75
2021/08/22 03:11:35;;;;;;;0.25;0.25;;;;;;;15.22;81.78;99210.00;5018821;28;20046;-76
2021/08/22 03:14:01;;;;;;;0.20;0.20;;;;;;;15.44;80.96;99206.28;5007955;28;20063;-75
2021/08/22 03:16:27;;;;;;;0.20;0.20;;;;;;;15.66;80.18;99208.00;4965497;28;20129;-73
2021/08/22 03:18:53;;;;;;;0.20;0.20;;;;;;;15.60;80.04;99208.72;4987363;28;20047;-75
2021/08/22 03:21:20;;;;;;;0.20;0.20;;;;;;;15.65;79.74;99205.44;5003523;28;20045;-75
2021/08/22 03:23:45;;;;;;;0.20;0.20;;;;;;;15.82;79.02;99214.22;5017520;28;20139;-75
2021/08/22 03:26:11;;;;;;;0.20;0.20;;;;;;;15.90;78.49;99230.44;5026594;28;20140;-75
2021/08/22 03:28:37;;;;;;;0.20;0.20;;;;;;;15.84;78.42;99225.78;4974711;28;20034;-75
2021/08/22 03:31:03;;;;;;;0.28;0.28;;;;;;;15.75;78.82;99226.94;4989918;28;20045;-73
2021/08/22 03:33:29;;;;;;;0.30;0.30;;;;;;;15.80;78.73;99229.94;5032313;28;20033;-75
2021/08/22 03:35:55;;;;;;;0.30;0.30;;;;;;;15.91;78.49;99232.97;5002467;28;20042;-75
2021/08/22 03:38:21;;;;;;;0.20;0.20;;;;;;;16.14;77.61;99231.91;5008662;28;20073;-75
2021/08/22 03:40:47;;;;;;;0.20;0.20;;;;;;;16.32;76.75;99228.69;5009915;28;20086;-75
2021/08/22 03:43:13;;;;;;;0.30;0.30;;;;;;;16.52;75.82;99224.19;5006637;28;20125;-75
2021/08/22 03:45:38;;;;;;;0.30;0.30;;;;;;;16.66;75.29;99224.28;4989259;28;20053;-75
2021/08/22 03:48:04;;;;;;;0.30;0.30;;;;;;;17.04;73.80;99224.75;5008614;28;20124;-76
2021/08/22 03:50:31;;;;;;;0.30;0.30;;;;;;;17.14;73.17;99230.63;5012961;28;20148;-74
2021/08/22 03:52:57;;;;;;;0.30;0.30;;;;;;;17.20;72.68;99226.25;5011043;28;20057;-76
2021/08/22 03:55:22;;;;;;;0.30;0.30;;;;;;;17.26;72.19;99230.91;4991443;28;20487;-74
2021/08/22 03:57:48;;;;;;;0.20;0.20;;;;;;;17.41;71.51;99217.09;5017056;28;20041;-75
2021/08/22 04:00:15;;;;;;;0.30;0.30;;;;;;;17.15;72.27;99234.22;5016600;28;20038;-76
2021/08/22 04:02:42;;;;;;;0.20;0.20;;;;;;;17.42;71.65;99232.44;5011925;28;20041;-77
2021/08/22 04:05:34;;;;;;;0.30;0.30;;;;;;;17.52;71.40;99231.00;5007231;28;20487;-76
2021/08/22 04:08:00;;;;;;;0.20;0.20;;;;;;;17.66;70.57;99231.00;5012789;28;20380;-78
2021/08/22 04:10:27;;;;;;;0.30;0.30;;;;;;;17.74;70.48;99218.00;4987873;28;20053;-78
2021/08/22 04:12:54;;;;;;;0.20;0.20;;;;;;;17.40;71.61;99232.63;4994844;28;20045;-78
2021/08/22 04:15:20;;;;;;;0.20;0.20;;;;;;;17.05;73.17;99219.06;5008958;28;20129;-77
2021/08/22 04:17:46;;;;;;;0.20;0.20;;;;;;;17.04;73.66;99228.31;5012845;28;20137;-78
2021/08/22 04:20:13;;;;;;;0.20;0.20;;;;;;;17.14;73.19;99222.44;5010972;28;20148;-76
2021/08/22 04:22:39;;;;;;;0.20;0.20;;;;;;;17.14;73.22;99222.44;5002106;28;20038;-75
2021/08/22 04:25:07;;;;;;;0.20;0.20;;;;;;;17.38;72.71;99234.72;4998996;28;20101;-79
2021/08/22 04:27:33;;;;;;;0.28;0.28;;;;;;;17.81;70.73;99238.03;5002551;28;20129;-76
2021/08/22 04:29:59;;;;;;;0.20;0.20;;;;;;;18.04;70.02;99240.34;5026290;28;20050;-79
2021/08/22 04:32:25;;;;;;;0.20;0.20;;;;;;;18.06;69.36;99232.78;5019673;28;20092;-78
2021/08/22 04:34:51;;;;;;;0.20;0.20;;;;;;;18.09;69.75;99236.97;4995515;28;20057;-80
2021/08/22 04:37:18;;;;;;;0.28;0.20;;;;;;;18.16;69.21;99236.97;5009724;28;20034;-78
2021/08/22 04:39:44;;;;;;;0.20;0.20;;;;;;;18.31;69.35;99229.38;5003600;28;20050;-79
2021/08/22 04:42:10;;;;;;;0.20;0.20;;;;;;;18.28;68.96;99251.69;5012938;28;20112;-76
2021/08/22 04:44:36;;;;;;;0.20;0.20;;;;;;;17.93;69.97;99246.44;5026290;28;21051;-78
2021/08/22 04:47:05;;;;;;;0.20;0.20;;;;;;;17.89;70.35;99253.38;5027275;28;21368;-79
2021/08/22 04:49:31;;;;;;;0.20;0.20;;;;;;;17.87;70.86;99260.94;5028080;28;20111;-76
2021/08/22 04:51:57;;;;;;;0.20;0.20;;;;;;;17.66;71.41;99261.06;5018791;28;20049;-77
2021/08/22 04:54:25;;;;;;;0.10;0.10;;;;;;;17.44;72.41;99265.84;5016706;28;20428;-77
2021/08/22 04:56:51;;;;;;;0.20;0.20;;;;;;;17.32;73.05;99262.88;5011981;28;20034;-76
2021/08/22 04:59:17;;;;;;;0.20;0.20;;;;;;;17.37;73.03;99274.03;5015702;28;20139;-79
2021/08/22 05:01:43;;;;;;;0.10;0.10;;;;;;;17.33;72.89;99270.00;5005810;28;20184;-78
2021/08/22 05:04:09;;;;;;;0.20;0.20;;;;;;;17.36;73.48;99269.59;5021435;28;20057;-76
2021/08/22 05:06:35;;;;;;;0.13;0.13;;;;;;;17.40;73.47;99270.88;5009160;28;20042;-76
2021/08/22 05:09:02;;;;;;;0.10;0.10;;;;;;;17.32;73.75;99273.78;5015420;28;20054;-78
2021/08/22 05:11:28;;;;;;;0.20;0.20;;;;;;;17.32;73.73;99269.16;5033394;28;20395;-77
2021/08/22 05:13:53;;;;;;;0.20;0.20;;;;;;;17.34;74.23;99274.44;5001048;28;20050;-76
2021/08/22 05:16:19;;;;;;;0.20;0.20;;;;;;;17.47;73.88;99285.41;5012095;28;20108;-79
2021/08/22 05:18:45;;;;;;;0.20;0.20;;;;;;;17.45;73.54;99273.84;5012802;28;20479;-77
2021/08/22 05:21:11;;;;;;;0.20;0.20;;;;;;;17.47;73.60;99288.13;5010144;28;20037;-79
2021/08/22 05:23:36;;;;;;;0.20;0.20;;;;;;;17.65;72.87;99284.00;5019259;28;20080;-77
2021/08/22 05:26:02;;;;;;;0.20;0.20;;;;;;;17.74;72.80;99286.34;5018751;28;20119;-76
2021/08/22 05:28:28;;;;;;;0.20;0.20;;;;;;;17.41;74.12;99288.97;5014806;28;20029;-80
2021/08/22 05:30:54;;;;;;;0.13;0.13;;;;;;;17.51;73.57;99283.94;5014212;28;20104;-79
2021/08/22 05:33:20;;;;;;;0.10;0.10;;;;;;;17.50;73.74;99287.72;5009071;28;20504;-79
2021/08/22 05:35:46;;;;;;;0.20;0.20;;;;;;;17.64;73.66;99288.63;5011166;28;20053;-77
2021/08/22 05:38:12;;;;;;;0.20;0.20;;;;;;;17.63;73.42;99294.31;5022066;28;20100;-81
2021/08/22 05:40:38;;;;;;;0.10;0.10;;;;;;;17.74;73.26;99293.72;5013467;28;20487;-79
2021/08/22 05:43:04;;;;;;;0.10;0.10;;;;;;;17.80;73.14;99301.94;5006779;28;20518;-78
2021/08/22 05:45:30;;;;;;;0.20;0.20;;;;;;;17.85;72.81;99290.41;5006281;28;20080;-78
2021/08/22 05:47:56;;;;;;;0.20;0.20;;;;;;;17.78;73.24;99300.47;5040972;28;20076;-80
2021/08/22 05:50:22;;;;;;;0.20;0.20;;;;;;;17.72;73.36;99298.53;5018717;28;20076;-78
2021/08/22 05:52:47;;;;;;;0.10;0.10;;;;;;;17.68;73.37;99300.84;5018101;28;20033;-78
2021/08/22 05:55:14;;;;;;;0.20;0.20;;;;;;;17.56;73.92;99303.31;5010715;28;20065;-79
2021/08/22 05:57:41;;;;;;;0.10;0.10;;;;;;;17.60;73.85;99310.06;5006018;28;20176;-79
2021/08/22 06:00:07;;;;;;;0.20;0.20;;;;;;;17.66;73.70;99308.41;5014546;28;20049;-78
2021/08/22 06:02:39;;;;;;;0.10;0.10;;;;;;;17.41;74.15;99310.84;5015013;28;20037;-76
2021/08/22 06:05:06;;;;;;;0.10;0.10;;;;;;;17.37;74.22;99304.09;5016284;28;20375;-78
2021/08/22 06:07:32;;;;;;;0.20;0.20;;;;;;;17.40;74.06;99314.59;5012895;28;20552;-79
2021/08/22 06:09:58;;;;;;;0.10;0.10;;;;;;;17.47;74.27;99310.00;5018105;28;20064;-78
2021/08/22 06:12:24;;;;;;;0.10;0.10;;;;;;;17.36;74.35;99302.41;4986949;28;20057;-79
2021/08/22 06:14:50;;;;;;;0.20;0.20;;;;;;;17.32;74.59;99303.84;5027420;28;20038;-77
2021/08/22 06:17:16;;;;;;;0.20;0.20;;;;;;;17.38;74.90;99311.25;5026836;28;20048;-79
2021/08/22 06:19:42;;;;;;;0.20;0.20;;;;;;;17.38;74.78;99305.78;5032897;28;20470;-80
2021/08/22 06:22:08;;;;;;;0.20;0.20;;;;;;;17.24;75.53;99313.06;5008652;28;20041;-79
2021/08/22 06:24:34;;;;;;;0.10;0.10;;;;;;;17.24;76.24;99323.16;5019421;28;20136;-79
2021/08/22 06:27:00;;;;;;;0.20;0.20;;;;;;;17.26;76.20;99312.88;5017754;28;20070;-80
2021/08/22 06:29:26;;;;;;;0.10;0.10;;;;;;;17.13;77.05;99324.56;5006785;28;20475;-80
2021/08/22 06:31:52;;;;;;;0.20;0.20;;;;;;;17.07;77.28;99315.28;5011042;28;20073;-78
2021/08/22 06:34:18;;;;;;;0.20;0.20;;;;;;;17.08;77.56;99316.97;5008397;28;20076;-78
2021/08/22 06:36:45;;;;;;;0.20;0.20;;;;;;;17.14;77.46;99325.41;5004847;28;20074;-79
2021/08/22 06:39:12;;;;;;;0.20;0.20;;;;;;;16.99;77.72;99329.09;5007523;28;20040;-79
2021/08/22 06:41:48;;;;;;;0.10;0.10;;;;;;;16.95;77.90;99327.81;5009148;28;20049;-78
2021/08/22 06:44:17;;;;;;;0.10;0.10;;;;;;;16.92;77.87;99333.69;5008132;28;20033;-79
2021/08/22 06:46:46;;;;;;;0.20;0.20;;;;;;;16.90;79.07;99338.50;4977080;28;20041;-78
2021/08/22 06:49:15;;;;;;;0.20;0.20;;;;;;;16.96;77.34;99328.66;4983409;28;20387;-76
2021/08/22 06:51:41;;;;;;;0.10;0.10;;;;;;;17.20;75.65;99338.25;5007757;28;20050;-79
2021/08/22 06:54:13;;;;;;;0.20;0.20;;;;;;;16.94;75.27;99337.06;4998100;28;20041;-80
2021/08/22 06:56:38;;;;;;;0.15;0.15;;;;;;;17.01;75.42;99343.41;4997373;28;20049;-81
2021/08/22 06:59:04;;;;;;;0.20;0.20;;;;;;;17.08;74.56;99338.84;4998368;28;20082;-78
2021/08/22 07:01:33;;;;;;;0.17;0.17;;;;;;;17.19;73.98;99350.25;5008355;28;20072;-80
2021/08/22 07:03:59;;;;;;;0.20;0.20;;;;;;;17.42;72.27;99344.47;5007059;28;20115;-80
2021/08/22 07:06:25;;;;;;;0.20;0.20;;;;;;;17.58;71.25;99344.94;4976511;28;20050;-78
2021/08/22 07:08:51;;;;;;;0.20;0.20;;;;;;;17.86;70.41;99346.78;5009890;28;20470;-77
2021/08/22 07:11:16;;;;;;;0.20;0.20;;;;;;;17.80;70.22;99336.66;5007482;28;20045;-78
2021/08/22 07:13:42;;;;;;;0.20;0.20;;;;;;;17.87;69.63;99342.16;5005350;28;20141;-79
2021/08/22 07:16:08;;;;;;;0.20;0.20;;;;;;;17.83;70.19;99349.91;4993592;28;20128;-80
2021/08/22 07:18:34;;;;;;;0.20;0.20;;;;;;;17.76;70.26;99349.06;5001470;28;20114;-79
2021/08/22 07:21:02;;;;;;;0.20;0.20;;;;;;;17.83;69.53;99348.03;5004007;28;20451;-78
2021/08/22 07:23:28;;;;;;;0.20;0.20;;;;;;;17.98;68.17;99349.75;5006022;28;20046;-78
2021/08/22 07:25:54;;;;;;;0.20;0.20;;;;;;;17.97;67.49;99357.13;4992114;28;20053;-79
2021/08/22 07:28:20;;;;;;;0.30;0.30;;;;;;;18.20;65.55;99353.16;5002366;28;20235;-79
2021/08/22 07:30:45;;;;;;;0.20;0.20;;;;;;;18.39;64.84;99355.09;5003166;28;20141;-79
2021/08/22 07:33:11;;;;;;;0.20;0.20;;;;;;;18.43;64.37;99356.38;5005166;28;20071;-78
2021/08/22 07:35:37;;;;;;;0.20;0.20;;;;;;;18.49;63.61;99357.41;5000146;28;20087;-80
2021/08/22 07:38:02;;;;;;;0.20;0.20;;;;;;;18.40;63.32;99358.69;5002010;28;20696;-79
2021/08/22 07:40:28;;;;;;;0.20;0.20;;;;;;;18.43;63.46;99369.19;5006436;28;20049;-79
2021/08/22 07:42:55;;;;;;;0.20;0.20;;;;;;;18.70;62.46;99367.31;5002869;28;20045;-79
2021/08/22 07:45:21;;;;;;;0.20;0.20;;;;;;;18.66;63.37;99377.00;5000246;28;20045;-79
2021/08/22 07:47:47;;;;;;;0.20;0.20;;;;;;;18.75;63.18;99378.50;5005781;28;20192;-79
2021/08/22 07:50:12;;;;;;;0.30;0.30;;;;;;;19.27;61.62;99376.78;5006688;28;20059;-79
2021/08/22 07:52:38;;;;;;;0.20;0.20;;;;;;;19.10;60.32;99381.00;4992657;28;20542;-80
2021/08/22 07:55:04;;;;;;;0.20;0.20;;;;;;;18.92;60.76;99379.75;5006067;28;20040;-79
2021/08/22 07:57:31;;;;;;;0.20;0.20;;;;;;;19.09;60.76;99387.56;4986719;28;20077;-79
2021/08/22 07:59:56;;;;;;;0.20;0.20;;;;;;;18.97;60.31;99381.84;4999702;28;20167;-79
2021/08/22 08:02:22;;;;;;;0.30;0.30;;;;;;;19.06;59.61;99375.13;5002185;28;20682;-80
2021/08/22 08:04:50;;;;;;;0.30;0.30;;;;;;;19.25;59.06;99385.19;5002703;28;20042;-80
2021/08/22 08:07:17;;;;;;;0.20;0.20;;;;;;;19.43;58.88;99391.91;5007664;28;20042;-78
2021/08/22 08:09:43;;;;;;;0.20;0.20;;;;;;;19.58;57.79;99384.25;5006643;28;20040;-79
2021/08/22 08:12:09;;;;;;;0.20;0.20;;;;;;;19.38;58.02;99389.81;4984347;28;20050;-79
2021/08/22 08:14:35;;;;;;;0.30;0.30;;;;;;;20.01;56.69;99394.66;5004828;28;20538;-79
2021/08/22 08:17:01;;;;;;;0.30;0.30;;;;;;;20.41;54.43;99403.50;5002669;28;20161;-79
2021/08/22 08:19:27;;;;;;;0.25;0.25;;;;;;;20.58;54.30;99401.09;4997237;28;20049;-79
2021/08/22 08:21:52;;;;;;;0.20;0.20;;;;;;;20.68;53.98;99411.59;4995722;28;20133;-79
2021/08/22 08:24:18;;;;;;;0.20;0.20;;;;;;;20.54;54.06;99405.34;4998264;28;20104;-79
2021/08/22 08:26:44;;;;;;;0.20;0.20;;;;;;;21.10;52.94;99409.16;4996800;28;20140;-78
2021/08/22 08:29:10;;;;;;;0.30;0.30;;;;;;;21.14;52.69;99413.13;4997894;28;20069;-78
2021/08/22 08:31:35;;;;;;;0.20;0.20;;;;;;;21.30;52.78;99409.78;4996444;28;20038;-79
2021/08/22 08:34:08;;;;;;;0.20;0.20;;;;;;;21.22;52.31;99412.81;5006803;28;20325;-79
2021/08/22 08:36:33;;;;;;;0.20;0.20;;;;;;;21.17;51.66;99407.16;5001553;28;20537;-79
2021/08/22 08:39:00;;;;;;;0.30;0.30;;;;;;;21.17;51.85;99421.75;4999922;28;20045;-79
2021/08/22 08:41:26;;;;;;;0.30;0.30;;;;;;;21.33;51.88;99425.00;5002338;28;20037;-79
2021/08/22 08:43:54;;;;;;;0.20;0.20;;;;;;;20.47;53.93;99421.84;5006736;28;20068;-78
2021/08/22 08:46:21;;;;;;;0.20;0.20;;;;;;;20.46;54.85;99420.16;5005461;28;20495;-78
2021/08/22 08:49:08;;;;;;;0.20;0.20;;;;;;;20.62;54.07;99423.47;5004067;28;20038;-79
2021/08/22 08:51:49;;;;;;;0.20;0.20;;;;;;;19.67;56.06;99426.03;5003350;28;20050;-81
2021/08/22 08:54:30;;;;;;;0.20;0.20;;;;;;;19.22;57.59;99428.63;5006246;28;20519;-78
2021/08/22 08:57:01;;;;;;;0.20;0.20;;;;;;;18.82;58.38;99438.75;5002973;28;20046;-78
2021/08/22 08:59:27;;;;;;;0.20;0.20;;;;;;;18.95;58.11;99433.28;4980635;28;20147;-79
2021/08/22 09:01:55;;;;;;;0.20;0.20;;;;;;;19.18;57.84;99432.84;5010043;28;20678;-79
2021/08/22 09:04:27;;;;;;;0.20;0.20;;;;;;;19.54;56.55;99440.59;4990023;28;20359;-79
2021/08/22 09:07:05;;;;;;;0.20;0.20;;;;;;;19.17;56.73;99437.50;5007659;28;20061;-81
2021/08/22 09:10:05;;;;;;;0.20;0.20;;;;;;;18.85;58.06;99439.19;5003667;28;20041;-80
2021/08/22 09:13:08;;;;;;;0.20;0.20;;;;;;;18.98;58.09;99450.16;5009388;28;20124;-79
2021/08/22 09:15:55;;;;;;;0.20;0.20;;;;;;;19.37;56.90;99442.94;5017800;28;20053;-79
2021/08/22 09:18:27;;;;;;;0.20;0.20;;;;;;;19.55;56.10;99450.50;5006493;28;20142;-78
2021/08/22 09:21:09;;;;;;;0.20;0.20;;;;;;;19.85;54.66;99455.50;5009327;28;20049;-78
2021/08/22 09:24:11;;;;;;;0.20;0.20;;;;;;;19.87;54.64;99459.72;5006796;28;20078;-79
2021/08/22 09:26:40;;;;;;;0.30;0.30;;;;;;;19.82;54.61;99456.81;5004973;28;20587;-79
2021/08/22 09:29:28;;;;;;;0.30;0.30;;;;;;;20.35;52.43;99456.56;5024997;28;20041;-78
2021/08/22 09:32:16;;;;;;;0.30;0.30;;;;;;;20.52;52.33;99461.59;5007152;28;20058;-80
2021/08/22 09:39:32;;;;;;;0.20;0.20;;;;;;;20.31;53.25;99470.94;4919957;29;20055;-79
2021/08/22 09:42:49;;;;;;;0.30;0.30;;;;;;;20.61;51.80;99472.06;4919797;29;20027;-78
2021/08/22 09:45:52;;;;;;;0.20;0.20;;;;;;;21.14;50.27;99466.19;4965971;28;20356;-79
2021/08/22 09:48:58;;;;;;;0.30;0.30;;;;;;;20.98;51.02;99476.88;5004050;28;20141;-80
2021/08/22 09:52:01;;;;;;;0.43;0.43;;;;;;;21.43;50.22;99480.34;5022478;28;20044;-80
2021/08/22 09:55:24;;;;;;;0.88;0.88;;;;;;;23.07;45.05;99480.41;5045098;28;20075;-78
2021/08/22 09:58:14;;;;;;;0.40;0.40;;;;;;;23.05;44.47;99479.81;4957650;28;20043;-78
2021/08/22 10:01:11;;;;;;;0.20;0.20;;;;;;;22.38;45.65;99489.03;4941858;28;20591;-79
2021/08/22 10:03:56;;;;;;;0.20;0.20;;;;;;;22.58;45.71;99487.91;5041800;28;20079;-80
2021/08/22 10:06:59;;;;;;;0.20;0.20;;;;;;;21.95;46.06;99496.53;5046006;28;20130;-81
2021/08/22 10:09:26;;;;;;;0.73;0.73;;;;;;;22.43;45.50;99501.28;5028519;28;20095;-81
2021/08/22 10:11:55;;;;;;;1.10;1.10;;;;;;;22.86;44.82;99493.66;5045480;28;20048;-81
2021/08/22 10:14:26;;;;;;;0.20;0.20;;;;;;;23.74;41.64;99497.53;4999960;28;20498;-79
2021/08/22 10:16:53;;;;;;;1.05;1.05;;;;;;;25.13;39.97;99493.75;5029529;28;20048;-80
2021/08/22 10:19:26;;;;;;;1.20;1.20;;;;;;;26.29;38.76;99508.78;5017754;28;20029;-78
2021/08/22 10:22:09;;;;;;;1.10;1.10;;;;;;;28.18;34.00;99499.41;5051530;28;20113;-77
2021/08/22 10:24:38;;;;;;;;;;;;;;;28.33;33.57;99502.25;5030720;28;20044;-79
2021/08/22 10:27:07;;;;;;;1.00;1.00;;;;;;;28.17;33.51;99503.31;5031291;28;20274;-80
2021/08/22 10:29:35;;;;;;;0.85;0.85;;;;;;;29.06;32.00;99499.47;5044297;28;20132;-82
2021/08/22 10:32:02;;;;;;;1.00;1.00;;;;;;;28.92;31.54;99499.13;5010781;28;20047;-78
2021/08/22 10:34:37;;;;;;;1.00;1.00;;;;;;;30.00;29.91;99506.38;5032386;28;20131;-79
2021/08/22 10:37:41;;;;;;;0.90;0.90;;;;;;;29.72;30.18;99502.25;5012036;28;20068;-80
2021/08/22 10:40:25;;;;;;;0.88;0.88;;;;;;;30.15;30.20;99501.88;5015882;28;20050;-79
2021/08/22 10:43:11;;;;;;;0.80;0.80;;;;;;;30.02;30.08;99501.38;4991419;28;20115;-79
2021/08/22 10:45:41;;;;;;;0.90;0.90;;;;;;;30.88;28.85;99502.16;5006536;28;20055;-79
2021/08/22 10:48:11;;;;;;;0.90;0.90;;;;;;;31.22;28.31;99506.94;5044704;28;20094;-80
2021/08/22 10:51:04;;;;;;;0.90;0.90;;;;;;;29.72;29.44;99512.56;5047324;28;20074;-78
2021/08/22 10:53:32;;;;;;;0.90;0.90;;;;;;;30.78;28.00;99502.19;5012647;28;20136;-80
2021/08/22 10:55:59;;;;;;;0.90;0.90;;;;;;;30.39;27.96;99505.75;5030800;28;20052;-79
2021/08/22 10:58:56;;;;;;;0.43;0.43;;;;;;;30.02;28.42;99495.81;5047511;28;20055;-78
2021/08/22 11:01:22;;;;;;;0.80;0.80;;;;;;;30.58;27.51;99507.88;5048113;28;20120;-79
2021/08/22 11:04:08;;;;;;;0.88;0.88;;;;;;;30.52;28.50;99507.06;5030383;28;20091;-78
2021/08/22 11:06:52;;;;;;;0.50;0.50;;;;;;;29.65;28.99;99500.88;5048331;28;20056;-79
2021/08/22 11:09:44;;;;;;;0.70;0.70;;;;;;;29.98;28.19;99497.50;5025938;28;20134;-79
2021/08/22 11:12:29;;;;;;;0.80;0.80;;;;;;;30.82;26.92;99500.50;5029591;28;20067;-77
2021/08/22 11:15:00;;;;;;;0.30;0.30;;;;;;;31.43;26.24;99496.47;5043518;28;20048;-78
2021/08/22 11:17:27;;;;;;;0.10;0.10;;;;;;;30.69;26.58;99506.72;5042559;28;20033;-79
2021/08/22 11:19:53;;;;;;;0.70;0.70;;;;;;;30.86;27.40;99493.25;5044110;28;20045;-79
2021/08/22 11:22:24;;;;;;;0.10;0.10;;;;;;;29.31;28.32;99498.66;5044519;28;20501;-80
2021/08/22 11:24:51;;;;;;;0.80;0.80;;;;;;;29.10;28.68;99499.75;5028551;28;20045;-81
2021/08/22 11:27:21;;;;;;;0.80;0.80;;;;;;;30.43;27.23;99501.25;5037125;28;20138;-79
2021/08/22 11:29:58;;;;;;;0.80;0.80;;;;;;;31.20;26.49;99504.44;5047507;28;20064;-80
2021/08/22 11:32:24;;;;;;;0.70;0.70;;;;;;;31.89;25.75;99504.44;5025683;28;20144;-80
2021/08/22 11:34:52;;;;;;;0.70;0.70;;;;;;;31.45;25.95;99497.84;5013154;28;20072;-81
2021/08/22 11:37:19;;;;;;;0.70;0.70;;;;;;;31.52;25.58;99493.84;5048191;28;20045;-80
2021/08/22 11:39:45;;;;;;;0.70;0.70;;;;;;;31.15;26.49;99506.41;5028976;28;20466;-81
2021/08/22 11:42:11;;;;;;;0.30;0.30;;;;;;;29.63;27.80;99503.97;5047357;28;20068;-78
2021/08/22 11:44:37;;;;;;;0.70;0.70;;;;;;;28.31;29.19;99498.94;5029869;28;20033;-80
2021/08/22 11:47:03;;;;;;;0.80;0.80;;;;;;;29.00;28.90;99495.84;5048892;28;20041;-78
2021/08/22 11:49:30;;;;;;;0.75;0.75;;;;;;;29.98;27.61;99494.69;5048728;28;20036;-80
2021/08/22 11:51:56;;;;;;;0.10;0.10;;;;;;;28.85;29.26;99490.25;5025718;28;20135;-80